FLIGHT INFORMATION
Olympic Air

OAL260

At Arrival Gate

KPAE
 LGAV
DATE: 2018-11-06
GATE:  -
GATE DEPARTURE: 01:39
TAKEOFF: 01:50
DATE: 2018-11-06
GATE:  -
LANDING: 13:39
GATE ARRIVAL: 13:45
FLIGHT DATA
Crew: CHRIS MAKRIS
Speed: 498 kts Altitude: 41000 ft
Stage Length: 5346 nm
Route: PAE HUH HUH03 COGLE SHARD VITEV BOOTH SPUZZ MERYT ICOLA STUMM YNY BOJAM CALLY SELUM ALGAR YMM 62N00 6591N 6780N 6870N 6860N 6850N 6740N 6530N 6320N ATSIX AKIVO LARDI TOPPA LIRSU NOSPA KRH LAMGO UTABA MOMUK BEMKI XEBIX ELMEM BILDU OTRES GIRIS TISAX NAXAV GIKEB LAMPO AKADO AGOMO BUSER GISNU XAPAT TIGRA BEDEX ROTSA SOTEG ARA NEMES
Block Time: 12.1 Flight Time: 11.8
Fuel Used: 225228 LB
TRACK DATA
50000 FT1000 KTAltitudeSpeed
AIRCRAFT INFORMATION
Aircraft Type: B748
Registration: SX-OAE
SELCAL:  MSN/LN: 0 / 1
Operator: OLYMPIC AIR
Flights: 5 Block Time: 26.4 Flight Time: 25.2
Fuel Used: 488348 LB
  • DEPARTURE INFORMATION
    Date: 2018-11-06
    Airport: KPAE
    Gate:  -
    Gate Departure: 01:39
    Takeoff: 01:50
    ARRIVAL INFORMATION
    Date: 2018-11-06
    Airport: LGAV
    Gate:  -
    Landing: 13:39
    Gate Arrival: 13:45
  • FLIGHT DATA
    Crew: CHRIS MAKRIS
    Speed: 498 kts Altitude: 41000 ft
    Stage Length: 2887 nm
    Route: PAE HUH HUH03 COGLE SHARD VITEV BOOTH SPUZZ MERYT ICOLA STUMM YNY BOJAM CALLY SELUM ALGAR YMM 62N00 6591N 6780N 6870N 6860N 6850N 6740N 6530N 6320N ATSIX AKIVO LARDI TOPPA LIRSU NOSPA KRH LAMGO UTABA MOMUK BEMKI XEBIX ELMEM BILDU OTRES GIRIS TISAX NAXAV GIKEB LAMPO AKADO AGOMO BUSER GISNU XAPAT TIGRA BEDEX ROTSA SOTEG ARA NEMES
    Block Time: 12.1 Flight Time: 11.8
    Fuel Used: 225228 LB
  • AIRCRAFT INFORMATION
    Aircraft Type: B748
    Registration: SX-OAE
    SELCAL:  MSN/LN: 0 / 1
    Operator: Olympic Air
    Flights: 5 Block Time: 26.4 Flight Time: 25.2
    Fuel Used: 488348 LB

DATALINK LOG | Newest first | Current as of: 2020-07-11 20:50:58
LABEL ID SEQUENCE CONTENT Dn/Up
QD451513:45 36.6▼ Dn
QC360113:36▼ Dn
463724/OV ELMEM /TM 1137 /FL040 /TP B748 /TA -30 /WV 184/35 /TB MOD /RM ▼ Dn
2U1955LGAV 061050Z 04021KT 9999 FEW030 19/10 Q1019 NOSIG▲ Up
2S1955LGAV▼ Dn
2U2708LGAV 060850Z 04020KT 9999 FEW030 18/10 Q1020 NOSIG▲ Up
2S2708LGAV▼ Dn
462403/OV 6591N /TM 0424 /FL370 /TP B748 /SK BKN /WX BR VIS CLR /TA -15 /WV 249/23 /RM NONE▼ Dn
QB465201:46▼ Dn
QA351501:35 261.9▼ Dn
2U2122KPAE 060053Z 08006KT 10SM FEW046 OVC060 11/09 A3004 RMK AO2 SLP174 T01060094▲ Up
2S2122KPAE▼ Dn


AIRCRAFT HISTORY
FLIGHT DATE FLIGHT NUMBER ORIGIN DESTINATION ROUTE BLOCK TIME FLIGHT TIME FUEL USED (LB) PILOT
2019-03-22OAL519KATL KBUF KATL MPASS ZELAN PADGT COLVN SMTTH CEMEX IBATE TONIO TAFTT JONEN HNN EWC DKK ZOBSO RW051.91.636762Steven Perry
2018-12-04OAL260CYYR KATL YYR YRI FLEUR CFB PSB PSYKO EMNEM GEFFS ASERY WISTA KONGO HLRRY STRWY4.23.969450Chris Makris
2018-11-23OAL260LGAV CYYR RIMAX XANIS YNN VJOSA PAPIZ GONOT CRAYE GISAM RILIM SAL LABIN SUXAN VALAV RONAG ARGAX ELMUR MANEG RIPUS DITON HOC NATLI LUL IXILU RESPO RLP ROTSI KOTUN PODUK DIDOR IRBAL NITAR ABNUR DIMAL ALESO ROTNO ETVAX TIGER BIG GOXUL LINDY NORRY CPT KENET UGNUS OKTAD TALGA LANON BADSI LIPGO RESNO 5620N 5730N 5740N 5650N JANJO YRI FLEUR CFB PSK SPA92 DGESS8.27.9156907Chris Makris
2018-11-23OAL260LGAV LGAV RIMAX XANIS YNN VJOSA PAPIZ GONOT CRAYE GISAM RILIM SAL LABIN SUXAN VALAV RONAG ARGAX ELMUR MANEG RIPUS DITON HOC NATLI LUL IXILU RESPO RLP ROTSI KOTUN PODUK DIDOR IRBAL NITAR ABNUR DIMAL ALESO ROTNO ETVAX TIGER BIG GOXUL LINDY NORRY CPT KENET UGNUS OKTAD TALGA LANON BADSI LIPGO RESNO 5620N 5730N 5740N 5650N JANJO YRI FLEUR CFB PSK SPA92 DGESS0.100Chris Makris
2018-11-06OAL260KPAE LGAV PAE HUH HUH03 COGLE SHARD VITEV BOOTH SPUZZ MERYT ICOLA STUMM YNY BOJAM CALLY SELUM ALGAR YMM 62N00 6591N 6780N 6870N 6860N 6850N 6740N 6530N 6320N ATSIX AKIVO LARDI TOPPA LIRSU NOSPA KRH LAMGO UTABA MOMUK BEMKI XEBIX ELMEM BILDU OTRES GIRIS TISAX NAXAV GIKEB LAMPO AKADO AGOMO BUSER GISNU XAPAT TIGRA BEDEX ROTSA SOTEG ARA NEMES12.111.8225228Chris Makris